Time;durP1;ratioP1;P1;durP2;ratioP2;P2;SDS_P1;SDS_P2;PMS_P1;PMS_P2;Temp;Humidity;BMP_temperature;BMP_pressure;BME280_temperature;BME280_humidity;BME280_pressure;Samples;Min_cycle;Max_cycle;Signal;HPM_P1;HPM_P2
2022/12/11 00:01:12;;;;;;;36.38;22.02;;;;;;;11.20;81.57;92593.28;4144530;28;20769;-59
2022/12/11 00:03:15;;;;;;;39.33;22.48;;;;;;;11.26;81.51;92606.31;4146599;28;20077;-55
2022/12/11 00:05:17;;;;;;;36.83;21.75;;;;;;;11.30;80.94;92609.31;4160109;28;20045;-57
2022/12/11 00:07:19;;;;;;;37.08;22.85;;;;;;;11.30;80.70;92593.59;4170026;28;20049;-59
2022/12/11 00:09:21;;;;;;;36.50;22.88;;;;;;;11.32;80.58;92602.06;4162658;28;20159;-60
2022/12/11 00:11:23;;;;;;;36.67;22.38;;;;;;;11.31;80.72;92595.19;4152788;28;20061;-58
2022/12/11 00:13:24;;;;;;;35.70;21.13;;;;;;;11.35;80.59;92609.47;4178617;28;20154;-57
2022/12/11 00:15:27;;;;;;;35.50;21.38;;;;;;;11.36;80.05;92607.69;4178203;28;20102;-55
2022/12/11 00:17:28;;;;;;;34.97;20.02;;;;;;;11.38;80.08;92589.88;4173096;28;20049;-55
2022/12/11 00:19:30;;;;;;;29.85;19.45;;;;;;;11.34;79.87;92576.44;4162125;28;20049;-56
2022/12/11 00:21:32;;;;;;;35.92;18.95;;;;;;;11.35;80.13;92588.50;4175439;28;20084;-56
2022/12/11 00:23:35;;;;;;;29.85;19.70;;;;;;;11.36;80.08;92587.50;4176735;28;20083;-54
2022/12/11 00:25:44;;;;;;;29.13;19.15;;;;;;;11.31;80.01;92589.16;4179088;28;20527;-57
2022/12/11 00:27:46;;;;;;;27.58;17.65;;;;;;;11.31;80.43;92597.81;4157116;28;20050;-58
2022/12/11 00:29:47;;;;;;;24.60;15.75;;;;;;;11.26;80.14;92600.28;4147485;28;20487;-57
2022/12/11 00:31:49;;;;;;;25.20;15.93;;;;;;;11.14;80.43;92587.09;4151887;28;20080;-56
2022/12/11 00:33:51;;;;;;;21.38;13.70;;;;;;;11.14;80.59;92607.22;4156021;28;20054;-57
2022/12/11 00:35:52;;;;;;;19.83;13.25;;;;;;;11.15;80.47;92603.63;4159245;28;20056;-59
2022/12/11 00:37:54;;;;;;;22.13;14.32;;;;;;;11.09;80.64;92596.59;4149004;28;20089;-59
2022/12/11 00:39:56;;;;;;;24.33;15.07;;;;;;;10.82;81.88;92583.72;4151972;28;20061;-58
2022/12/11 00:41:57;;;;;;;20.92;15.13;;;;;;;10.73;82.78;92582.34;4154375;28;20056;-59
2022/12/11 00:43:59;;;;;;;23.40;14.20;;;;;;;10.78;82.82;92585.13;4144614;28;20057;-55
2022/12/11 00:46:01;;;;;;;22.08;13.75;;;;;;;10.88;82.64;92588.06;4145951;28;20054;-56
2022/12/11 00:48:04;;;;;;;22.55;13.85;;;;;;;10.99;82.51;92587.41;4150749;28;20041;-56
2022/12/11 00:50:06;;;;;;;23.98;13.85;;;;;;;11.07;81.65;92565.38;4154863;28;20090;-57
2022/12/11 00:52:09;;;;;;;27.25;15.23;;;;;;;11.12;81.31;92593.53;4145152;28;20239;-57
2022/12/11 00:54:11;;;;;;;20.83;12.95;;;;;;;11.16;81.28;92589.47;4148474;28;20469;-56
2022/12/11 00:56:18;;;;;;;21.30;14.38;;;;;;;11.13;80.93;92563.72;4160178;28;20103;-54
2022/12/11 00:58:20;;;;;;;21.00;12.70;;;;;;;11.12;81.00;92562.91;4162609;28;20152;-53
2022/12/11 01:00:21;;;;;;;21.15;13.50;;;;;;;11.13;81.01;92576.81;4165208;28;20437;-55
2022/12/11 01:02:23;;;;;;;25.55;14.20;;;;;;;11.15;81.21;92586.06;4153295;28;20053;-52
2022/12/11 01:04:25;;;;;;;19.70;13.73;;;;;;;11.14;81.30;92574.00;4149709;28;20049;-54
2022/12/11 01:06:27;;;;;;;17.63;12.40;;;;;;;11.09;81.00;92565.94;4169674;28;20206;-54
2022/12/11 01:08:29;;;;;;;18.67;12.55;;;;;;;11.13;81.11;92584.69;4178176;28;20080;-58
2022/12/11 01:10:38;;;;;;;20.60;12.57;;;;;;;11.09;81.21;92596.59;4176526;28;20055;-53
2022/12/11 01:12:40;;;;;;;19.00;12.35;;;;;;;11.06;81.35;92587.34;4176682;28;20055;-54
2022/12/11 01:14:42;;;;;;;16.30;10.80;;;;;;;10.88;81.66;92574.19;4160610;28;20209;-55
2022/12/11 01:16:43;;;;;;;19.73;11.27;;;;;;;10.86;81.82;92582.25;4162176;28;20505;-55
2022/12/11 01:18:45;;;;;;;18.42;10.65;;;;;;;10.89;81.95;92581.03;4167485;28;20371;-55
2022/12/11 01:20:47;;;;;;;15.73;10.40;;;;;;;10.95;81.86;92619.47;4161829;28;20405;-51
2022/12/11 01:22:51;;;;;;;15.25;10.30;;;;;;;10.96;81.77;92611.41;4160806;28;20084;-57
2022/12/11 01:24:53;;;;;;;15.48;9.32;;;;;;;11.02;81.74;92607.94;4162292;28;20080;-56
2022/12/11 01:26:54;;;;;;;15.55;8.63;;;;;;;11.07;81.78;92618.56;4173902;28;20057;-51
2022/12/11 01:28:56;;;;;;;18.40;9.90;;;;;;;11.04;82.80;92563.19;4152173;28;20049;-53
2022/12/11 01:30:58;;;;;;;18.25;10.40;;;;;;;11.09;83.15;92567.78;4161902;28;20057;-52
2022/12/11 01:33:00;;;;;;;15.13;9.75;;;;;;;11.12;83.16;92543.75;4163438;28;20057;-53
2022/12/11 01:35:04;;;;;;;15.27;9.90;;;;;;;11.04;83.03;92548.25;4176198;28;20118;-51
2022/12/11 01:37:06;;;;;;;18.10;10.10;;;;;;;10.98;83.56;92543.06;4173911;28;20113;-55
2022/12/11 01:39:07;;;;;;;15.18;9.65;;;;;;;10.81;84.74;92548.03;4164504;28;20100;-52
2022/12/11 01:41:09;;;;;;;15.38;9.77;;;;;;;10.66;85.19;92536.03;4158826;28;20567;-52
2022/12/11 01:43:11;;;;;;;15.85;9.18;;;;;;;10.76;85.48;92530.34;4173831;28;20072;-54
2022/12/11 01:45:39;;;;;;;15.30;8.38;;;;;;;10.69;84.82;92519.13;4167385;28;20060;-53
2022/12/11 01:47:40;;;;;;;16.52;8.40;;;;;;;10.80;85.05;92507.16;4177112;28;20055;-51
2022/12/11 01:49:42;;;;;;;12.40;7.57;;;;;;;10.75;85.17;92501.75;4177328;28;20053;-50
2022/12/11 01:52:09;;;;;;;14.35;7.32;;;;;;;10.82;85.16;92560.94;4177155;28;20075;-51
2022/12/11 01:54:12;;;;;;;8.43;5.65;;;;;;;10.85;84.64;92551.84;4153696;28;20534;-49
2022/12/11 01:56:14;;;;;;;10.93;6.22;;;;;;;10.98;83.88;92567.44;4152314;28;20098;-53
2022/12/11 01:58:17;;;;;;;1.70;1.00;;;;;;;11.31;79.34;92508.69;4167017;28;20429;-52
2022/12/11 02:00:19;;;;;;;1.85;0.80;;;;;;;11.62;77.82;92556.81;4174414;28;20048;-51
2022/12/11 02:02:27;;;;;;;4.40;2.00;;;;;;;11.88;77.96;92537.38;4177234;28;20059;-55
2022/12/11 02:04:29;;;;;;;2.63;1.17;;;;;;;12.02;73.79;92543.25;4169967;28;20112;-53
2022/12/11 02:06:40;;;;;;;2.60;0.35;;;;;;;12.31;70.19;92536.44;4171156;28;20529;-51
2022/12/11 02:08:42;;;;;;;2.30;0.85;;;;;;;12.45;71.86;92551.00;4176745;28;20064;-53
2022/12/11 02:11:08;;;;;;;0.63;0.25;;;;;;;12.56;69.27;92544.19;4163609;28;20474;-52
2022/12/11 02:13:21;;;;;;;0.57;0.30;;;;;;;12.67;69.04;92495.34;4176125;28;20089;-53
2022/12/11 02:15:29;;;;;;;0.52;0.30;;;;;;;12.78;68.37;92552.34;4149956;28;20072;-55
2022/12/11 02:17:46;;;;;;;0.77;0.45;;;;;;;12.98;66.50;92475.03;4175814;28;20053;-54
2022/12/11 02:20:10;;;;;;;1.65;0.52;;;;;;;13.09;65.96;92454.00;4149374;28;20123;-54
2022/12/11 02:22:38;;;;;;;0.70;0.50;;;;;;;13.18;66.30;92445.78;4143616;28;20058;-54
2022/12/11 02:24:54;;;;;;;0.57;0.38;;;;;;;13.23;66.30;92422.25;4144444;28;20445;-53
2022/12/11 02:27:13;;;;;;;1.23;0.52;;;;;;;13.33;66.11;92425.09;4151137;28;20057;-54
2022/12/11 02:29:20;;;;;;;5.00;1.00;;;;;;;13.48;66.51;92399.09;4158333;28;20081;-54
2022/12/11 02:31:49;;;;;;;3.30;1.20;;;;;;;13.58;66.48;92402.97;4174051;28;20053;-55
2022/12/11 02:34:00;;;;;;;1.33;0.85;;;;;;;13.59;65.98;92428.25;4161127;28;20404;-57
2022/12/11 02:36:04;;;;;;;3.92;1.10;;;;;;;13.72;66.48;92451.66;4162281;28;20071;-56
2022/12/11 02:38:19;;;;;;;2.85;1.20;;;;;;;13.78;67.53;92444.66;4162169;28;20751;-60
2022/12/11 02:40:24;;;;;;;3.25;1.40;;;;;;;13.79;67.10;92443.63;4166573;28;20106;-56
2022/12/11 02:42:29;;;;;;;1.63;1.08;;;;;;;13.84;67.34;92465.56;4168219;28;20111;-55
2022/12/11 02:44:33;;;;;;;2.78;0.98;;;;;;;13.89;66.37;92436.72;4153026;28;20120;-57
2022/12/11 02:46:35;;;;;;;3.25;1.10;;;;;;;13.89;67.50;92463.03;4168539;28;20073;-57
2022/12/11 02:48:39;;;;;;;3.72;1.27;;;;;;;13.88;67.60;92460.66;4166850;28;20080;-56
2022/12/11 02:50:46;;;;;;;2.55;1.13;;;;;;;13.86;66.26;92468.00;4172566;28;20053;-59
2022/12/11 02:52:50;;;;;;;1.95;0.93;;;;;;;13.85;65.92;92474.25;4159868;28;20049;-58
2022/12/11 02:54:55;;;;;;;1.58;1.00;;;;;;;13.86;64.59;92495.09;4160775;28;20046;-60
2022/12/11 02:57:35;;;;;;;1.48;1.00;;;;;;;13.91;64.75;92487.28;4167107;28;20175;-62
2022/12/11 02:59:41;;;;;;;2.70;1.17;;;;;;;13.93;64.68;92500.22;4169046;28;20056;-59
2022/12/11 03:01:45;;;;;;;3.22;0.68;;;;;;;13.84;65.19;92502.41;4147927;28;20054;-56
2022/12/11 03:03:50;;;;;;;1.50;0.70;;;;;;;13.91;64.53;92484.66;4157558;28;20059;-56
2022/12/11 03:05:52;;;;;;;1.25;0.50;;;;;;;13.90;63.75;92453.34;4159018;28;20487;-53
2022/12/11 03:07:53;;;;;;;0.63;0.30;;;;;;;13.96;63.31;92478.72;4159304;28;20049;-56
2022/12/11 03:09:56;;;;;;;0.93;0.50;;;;;;;13.97;63.87;92474.25;4149660;28;20072;-56
2022/12/11 03:11:58;;;;;;;0.75;0.50;;;;;;;14.04;63.57;92470.44;4159493;28;20073;-56
2022/12/11 03:14:01;;;;;;;0.85;0.52;;;;;;;14.08;63.64;92460.25;4158542;28;20085;-57
2022/12/11 03:16:11;;;;;;;0.77;0.57;;;;;;;14.08;64.07;92482.09;4168835;28;20091;-54
2022/12/11 03:18:20;;;;;;;0.70;0.40;;;;;;;14.13;64.06;92455.06;4165394;28;20143;-53
2022/12/11 03:20:42;;;;;;;2.25;0.88;;;;;;;14.14;64.11;92475.88;4152307;28;20417;-55
2022/12/11 03:23:04;;;;;;;1.02;0.30;;;;;;;14.12;64.26;92477.97;4164085;28;20502;-57
2022/12/11 03:25:14;;;;;;;2.72;0.77;;;;;;;14.14;64.61;92475.09;4148273;28;20049;-56
2022/12/11 03:27:41;;;;;;;0.90;0.60;;;;;;;14.11;64.33;92455.31;4160691;28;20049;-59
2022/12/11 03:29:57;;;;;;;2.30;0.70;;;;;;;14.05;64.53;92472.03;4171829;28;20350;-55
2022/12/11 03:32:08;;;;;;;3.17;0.80;;;;;;;14.01;65.01;92484.06;4160081;28;20050;-57
2022/12/11 03:34:18;;;;;;;2.10;0.70;;;;;;;14.00;64.95;92473.75;4146476;28;20073;-59
2022/12/11 03:36:24;;;;;;;3.63;0.70;;;;;;;14.07;64.57;92474.44;4147449;28;20084;-59
2022/12/11 03:38:37;;;;;;;1.90;0.47;;;;;;;14.13;64.67;92487.47;4161803;28;20045;-58
2022/12/11 03:40:41;;;;;;;3.28;0.70;;;;;;;14.16;64.70;92498.56;4174485;28;20130;-57
2022/12/11 03:42:44;;;;;;;1.17;0.73;;;;;;;14.13;64.64;92510.34;4173316;28;20459;-55
2022/12/11 03:44:48;;;;;;;2.10;0.82;;;;;;;14.14;64.53;92509.31;4165400;28;20221;-56
2022/12/11 03:46:51;;;;;;;2.20;0.77;;;;;;;14.17;63.81;92516.75;4157718;28;21165;-55
2022/12/11 03:48:55;;;;;;;2.53;0.98;;;;;;;14.12;63.54;92532.47;4166294;28;20555;-56
2022/12/11 03:51:03;;;;;;;5.72;0.70;;;;;;;14.10;63.32;92502.94;4163258;28;20146;-54
2022/12/11 03:53:05;;;;;;;3.03;0.70;;;;;;;14.14;63.54;92533.03;4172688;28;20057;-56
2022/12/11 03:55:08;;;;;;;2.15;0.80;;;;;;;14.14;63.45;92549.63;4171467;28;20142;-55
2022/12/11 03:57:13;;;;;;;1.48;0.70;;;;;;;14.16;62.64;92557.28;4161084;28;20115;-57
2022/12/11 03:59:14;;;;;;;3.92;0.80;;;;;;;14.20;63.38;92549.72;4158186;28;20068;-58
2022/12/11 04:01:16;;;;;;;2.55;0.90;;;;;;;14.21;62.14;92552.09;4162998;28;20456;-55
2022/12/11 04:03:18;;;;;;;1.23;0.90;;;;;;;14.27;62.82;92584.63;4163736;28;20061;-52
2022/12/11 04:05:20;;;;;;;1.55;0.85;;;;;;;14.26;63.20;92552.22;4139670;28;20099;-55
2022/12/11 04:07:21;;;;;;;0.80;0.65;;;;;;;14.26;63.19;92578.56;4157453;28;20076;-56
2022/12/11 04:09:23;;;;;;;1.73;0.80;;;;;;;14.27;63.25;92590.69;4162764;28;20124;-58
2022/12/11 04:11:33;;;;;;;2.08;0.80;;;;;;;14.15;63.97;92560.94;4166400;28;20064;-56
2022/12/11 04:13:36;;;;;;;2.05;0.80;;;;;;;14.06;63.45;92572.88;4161425;28;20123;-55
2022/12/11 04:15:39;;;;;;;1.48;0.70;;;;;;;14.16;63.21;92585.47;4162336;28;20140;-55
2022/12/11 04:24:41;;;;;;;6.72;0.80;;;;;;;14.39;62.12;92608.28;4170320;28;20060;-54
2022/12/11 04:26:45;;;;;;;2.78;0.60;;;;;;;14.37;61.42;92589.28;4171488;28;20438;-57
2022/12/11 04:28:48;;;;;;;3.72;0.70;;;;;;;14.44;61.48;92605.78;4165010;28;20616;-58
2022/12/11 04:30:50;;;;;;;1.60;0.85;;;;;;;14.49;60.61;92603.22;4166592;28;20095;-54
2022/12/11 04:32:53;;;;;;;6.20;0.90;;;;;;;14.42;61.50;92599.94;4152070;28;20058;-55
2022/12/11 04:34:55;;;;;;;1.50;0.82;;;;;;;14.48;60.43;92588.47;4172603;28;20474;-54
2022/12/11 04:36:57;;;;;;;1.95;0.63;;;;;;;14.53;60.85;92620.97;4162504;28;20087;-55
2022/12/11 04:38:58;;;;;;;3.03;1.23;;;;;;;14.47;60.51;92603.44;4161568;28;20053;-54
2022/12/11 04:41:02;;;;;;;2.60;0.80;;;;;;;14.47;59.53;92611.34;4166870;28;20065;-53
2022/12/11 04:43:04;;;;;;;1.65;0.80;;;;;;;14.46;59.21;92603.69;4168020;28;20129;-51
2022/12/11 04:45:07;;;;;;;1.45;0.70;;;;;;;14.50;59.40;92613.53;4160202;28;20065;-54
2022/12/11 04:47:09;;;;;;;3.10;1.10;;;;;;;14.46;58.40;92632.69;4170975;28;20719;-56
2022/12/11 04:49:11;;;;;;;0.95;0.55;;;;;;;14.48;58.39;92638.50;4169527;28;20053;-51
2022/12/11 04:51:13;;;;;;;2.22;0.80;;;;;;;14.46;58.86;92641.38;4171519;28;20114;-51
2022/12/11 04:53:15;;;;;;;3.88;0.60;;;;;;;14.44;57.90;92621.56;4166030;28;20049;-56
2022/12/11 04:55:17;;;;;;;1.48;0.70;;;;;;;14.49;57.56;92640.91;4168231;28;20061;-54
2022/12/11 04:57:20;;;;;;;2.33;0.68;;;;;;;14.52;57.99;92640.44;4173190;28;20054;-53
2022/12/11 04:59:22;;;;;;;1.73;0.50;;;;;;;14.59;56.56;92650.09;4150797;28;20581;-52
2022/12/11 05:01:23;;;;;;;1.40;0.95;;;;;;;14.64;57.16;92631.72;4177733;28;20110;-54
2022/12/11 05:03:25;;;;;;;1.92;0.82;;;;;;;14.62;57.08;92637.22;4178028;28;20556;-56
2022/12/11 05:05:27;;;;;;;1.98;0.73;;;;;;;14.57;56.99;92626.59;4176404;28;20596;-53
2022/12/11 05:07:28;;;;;;;2.05;0.88;;;;;;;14.58;56.51;92653.75;4154389;28;20063;-55
2022/12/11 05:09:30;;;;;;;1.80;0.70;;;;;;;14.48;56.37;92612.16;4177578;28;20073;-52
2022/12/11 05:11:32;;;;;;;2.30;0.75;;;;;;;14.49;56.79;92650.66;4177815;28;20067;-55
2022/12/11 05:13:34;;;;;;;1.80;0.63;;;;;;;14.52;57.07;92608.03;4174580;28;20049;-52
2022/12/11 05:15:39;;;;;;;2.13;0.50;;;;;;;14.57;56.21;92610.78;4163823;28;20061;-53
2022/12/11 05:17:41;;;;;;;1.90;0.65;;;;;;;14.59;56.62;92603.44;4178122;28;20045;-55
2022/12/11 05:19:43;;;;;;;4.95;1.00;;;;;;;14.57;55.92;92605.53;4178245;28;20057;-54
2022/12/11 05:21:44;;;;;;;1.60;0.60;;;;;;;14.58;56.07;92596.56;4165770;28;20717;-51
2022/12/11 05:23:46;;;;;;;2.95;0.73;;;;;;;14.53;57.06;92601.72;4162942;28;20045;-55
2022/12/11 05:25:55;;;;;;;4.75;0.77;;;;;;;14.55;55.93;92615.50;4178197;28;20131;-52
2022/12/11 05:27:57;;;;;;;2.03;0.73;;;;;;;14.57;56.63;92602.88;4168746;28;20053;-55
2022/12/11 05:29:58;;;;;;;3.00;0.57;;;;;;;14.60;56.98;92602.41;4165400;28;20068;-55
2022/12/11 05:32:00;;;;;;;1.88;0.60;;;;;;;14.59;56.92;92592.13;4160613;28;20475;-54
2022/12/11 05:34:02;;;;;;;1.55;0.57;;;;;;;14.58;57.15;92596.56;4157661;28;20378;-55
2022/12/11 05:36:07;;;;;;;2.10;0.73;;;;;;;14.60;57.59;92601.63;4148659;28;20056;-55
2022/12/11 05:38:09;;;;;;;2.45;0.68;;;;;;;14.63;57.76;92611.69;4155147;28;20140;-51
2022/12/11 05:40:11;;;;;;;2.08;0.77;;;;;;;14.64;57.73;92611.44;4150295;28;20147;-53
2022/12/11 05:42:13;;;;;;;3.90;1.00;;;;;;;14.64;57.93;92608.00;4160333;28;20057;-54
2022/12/11 05:44:15;;;;;;;3.40;0.90;;;;;;;14.60;58.04;92618.22;4146663;28;20132;-53
2022/12/11 05:46:17;;;;;;;2.15;1.02;;;;;;;14.60;57.91;92607.69;4177030;28;20143;-55
2022/12/11 05:48:19;;;;;;;3.42;0.90;;;;;;;14.61;57.71;92593.47;4164014;28;20189;-54
2022/12/11 05:50:21;;;;;;;2.67;0.80;;;;;;;14.61;58.01;92611.13;4145159;28;20633;-52
2022/12/11 05:52:22;;;;;;;3.47;0.85;;;;;;;14.56;57.98;92585.47;4170913;28;20083;-53
2022/12/11 05:54:24;;;;;;;1.95;0.70;;;;;;;14.56;57.54;92582.81;4156830;28;20410;-52
2022/12/11 05:56:31;;;;;;;1.85;0.70;;;;;;;14.67;56.96;92589.91;4159550;28;20128;-53
2022/12/11 05:58:33;;;;;;;2.28;0.73;;;;;;;14.64;56.58;92587.72;4176064;28;20052;-54
2022/12/11 06:00:35;;;;;;;2.55;1.02;;;;;;;14.63;57.47;92580.06;4160068;28;20079;-55
2022/12/11 06:02:36;;;;;;;3.33;0.77;;;;;;;14.65;57.18;92612.28;4144716;28;20099;-52
2022/12/11 06:04:38;;;;;;;3.13;0.70;;;;;;;14.67;56.86;92568.81;4164076;28;20618;-53
2022/12/11 06:06:42;;;;;;;2.08;0.90;;;;;;;14.77;56.23;92570.81;4164422;28;20088;-53
2022/12/11 06:08:44;;;;;;;2.25;0.82;;;;;;;14.85;55.79;92588.09;4143912;28;20084;-55
2022/12/11 06:10:49;;;;;;;3.47;0.90;;;;;;;14.81;56.28;92552.72;4144938;28;20146;-53
2022/12/11 06:12:51;;;;;;;6.28;0.88;;;;;;;14.79;56.17;92545.03;4144854;28;20058;-52
2022/12/11 06:14:52;;;;;;;0.40;0.40;;;;;;;14.74;54.48;92595.03;4149875;28;20084;-55
2022/12/11 06:16:54;;;;;;;4.25;0.88;;;;;;;14.78;54.71;92592.72;4160979;28;20056;-54
2022/12/11 06:18:56;;;;;;;2.47;0.70;;;;;;;14.87;54.25;92575.50;4160944;28;20524;-55
2022/12/11 06:20:59;;;;;;;1.65;0.77;;;;;;;14.86;54.76;92568.59;4149322;28;20443;-55
2022/12/11 06:23:01;;;;;;;3.75;1.30;;;;;;;14.92;54.58;92607.22;4144513;28;20058;-55
2022/12/11 06:25:03;;;;;;;1.58;0.88;;;;;;;14.99;52.92;92568.31;4150264;28;20136;-54
2022/12/11 06:27:04;;;;;;;14.65;7.35;;;;;;;15.01;53.41;92640.06;4151743;28;20438;-55
2022/12/11 06:29:06;;;;;;;3.15;1.30;;;;;;;15.07;53.46;92593.50;4156700;28;20126;-53
2022/12/11 06:31:13;;;;;;;1.90;0.80;;;;;;;15.07;53.33;92611.94;4173651;28;20470;-54
2022/12/11 06:33:16;;;;;;;1.80;0.70;;;;;;;15.11;53.41;92595.41;4155585;28;20112;-54
2022/12/11 06:35:17;;;;;;;1.17;0.57;;;;;;;15.21;53.29;92617.72;4152764;28;20954;-54
2022/12/11 06:37:19;;;;;;;3.05;1.40;;;;;;;15.21;53.06;92591.34;4160513;28;20383;-55
2022/12/11 06:39:21;;;;;;;0.98;0.75;;;;;;;15.16;54.14;92621.06;4145206;28;20062;-53
2022/12/11 06:41:22;;;;;;;2.35;1.00;;;;;;;15.15;54.71;92628.19;4161613;28;20119;-54
2022/12/11 06:43:24;;;;;;;3.10;0.57;;;;;;;15.18;54.82;92645.38;4169886;28;20483;-52
2022/12/11 06:45:26;;;;;;;4.22;0.80;;;;;;;15.14;54.99;92610.78;4172909;28;20409;-55
2022/12/11 06:47:28;;;;;;;1.70;0.95;;;;;;;15.22;54.65;92606.13;4167848;28;20041;-55
2022/12/11 06:49:30;;;;;;;3.92;1.15;;;;;;;15.13;54.90;92640.00;4173030;28;20044;-52
2022/12/11 06:51:31;;;;;;;1.80;0.80;;;;;;;15.23;53.80;92623.56;4173830;28;20208;-56
2022/12/11 06:53:34;;;;;;;5.03;1.00;;;;;;;15.26;54.36;92638.91;4165954;28;20544;-51
2022/12/11 06:55:36;;;;;;;2.47;1.00;;;;;;;15.29;54.27;92628.69;4170027;28;20053;-53
2022/12/11 06:57:37;;;;;;;3.25;0.90;;;;;;;15.29;54.11;92607.59;4170273;28;20273;-55
2022/12/11 06:59:39;;;;;;;2.85;0.77;;;;;;;15.32;54.09;92632.69;4171848;28;20049;-52
2022/12/11 07:01:40;;;;;;;1.95;0.98;;;;;;;15.31;54.00;92639.78;4169512;28;20053;-55
2022/12/11 07:03:42;;;;;;;0.70;0.50;;;;;;;15.36;53.66;92655.72;4172059;28;20438;-54
2022/12/11 07:05:44;;;;;;;1.50;0.80;;;;;;;15.38;53.89;92649.38;4165641;28;20041;-54
2022/12/11 07:07:46;;;;;;;2.35;0.80;;;;;;;15.34;52.99;92633.25;4143932;28;20398;-54
2022/12/11 07:09:48;;;;;;;2.33;0.70;;;;;;;15.23;53.32;92636.75;4168318;28;20470;-52
2022/12/11 07:11:50;;;;;;;2.20;0.75;;;;;;;15.27;53.73;92654.50;4176383;28;20074;-54
2022/12/11 07:13:52;;;;;;;2.60;0.70;;;;;;;15.34;53.89;92651.72;4162401;28;20130;-55
2022/12/11 07:15:53;;;;;;;1.75;1.00;;;;;;;15.20;54.31;92650.41;4144555;28;20084;-55
2022/12/11 07:17:55;;;;;;;6.18;1.80;;;;;;;15.27;54.63;92667.72;4145987;28;20077;-55
2022/12/11 07:19:57;;;;;;;5.40;1.60;;;;;;;15.18;54.83;92642.72;4161506;28;20057;-53
2022/12/11 07:21:58;;;;;;;2.53;1.05;;;;;;;15.10;55.60;92643.94;4164517;28;20055;-54
2022/12/11 07:24:00;;;;;;;5.45;1.10;;;;;;;15.17;55.32;92661.44;4154183;28;20046;-59
2022/12/11 07:26:07;;;;;;;2.53;0.90;;;;;;;15.19;55.41;92644.34;4150144;28;20065;-55
2022/12/11 07:28:08;;;;;;;1.23;0.80;;;;;;;15.13;53.30;92627.63;4152366;28;20149;-58
2022/12/11 07:30:35;;;;;;;1.13;0.80;;;;;;;15.07;54.85;92628.56;4167508;28;20223;-55
2022/12/11 07:32:37;;;;;;;1.23;0.50;;;;;;;15.15;54.78;92646.66;4177962;28;20140;-57
2022/12/11 07:34:38;;;;;;;2.75;1.20;;;;;;;15.29;54.88;92651.63;4177266;28;20085;-57
2022/12/11 07:36:42;;;;;;;3.33;0.82;;;;;;;15.29;54.80;92660.34;4178914;28;20054;-56
2022/12/11 07:38:44;;;;;;;2.70;1.00;;;;;;;15.30;54.96;92671.69;4168708;28;20060;-58
2022/12/11 07:40:46;;;;;;;1.98;0.80;;;;;;;15.33;55.32;92660.66;4165915;28;20045;-57
2022/12/11 07:42:47;;;;;;;2.80;1.20;;;;;;;15.22;56.46;92674.72;4159920;28;20417;-57
2022/12/11 07:44:49;;;;;;;4.15;1.15;;;;;;;15.24;57.15;92699.81;4153766;28;20048;-55
2022/12/11 07:46:51;;;;;;;4.47;1.20;;;;;;;15.11;57.23;92661.34;4179732;28;20469;-53
2022/12/11 07:48:53;;;;;;;6.85;1.83;;;;;;;15.01;57.76;92669.06;4168063;28;20050;-56
2022/12/11 07:50:54;;;;;;;7.38;1.70;;;;;;;15.06;57.49;92703.44;4177457;28;20106;-57
2022/12/11 07:52:56;;;;;;;4.85;2.38;;;;;;;15.03;56.96;92706.53;4166169;28;20421;-50
2022/12/11 07:54:58;;;;;;;5.50;2.30;;;;;;;14.84;59.80;92684.84;4171332;28;20382;-53
2022/12/11 07:56:59;;;;;;;6.32;2.22;;;;;;;14.73;60.62;92681.22;4179335;28;20128;-53
2022/12/11 07:59:03;;;;;;;4.32;1.38;;;;;;;14.76;60.49;92655.44;4177263;28;20114;-54
2022/12/11 08:01:10;;;;;;;2.35;1.00;;;;;;;14.93;56.00;92687.91;4179393;28;20132;-53
2022/12/11 08:03:12;;;;;;;2.05;1.00;;;;;;;15.06;55.81;92713.22;4178098;28;20140;-55
2022/12/11 08:05:14;;;;;;;5.03;1.27;;;;;;;15.09;56.07;92681.06;4177808;28;20140;-53
2022/12/11 08:07:15;;;;;;;2.80;1.02;;;;;;;15.12;55.20;92662.13;4163040;28;20049;-53
2022/12/11 08:09:21;;;;;;;2.13;0.80;;;;;;;15.24;53.36;92673.44;4161036;28;20053;-51
2022/12/11 08:11:23;;;;;;;2.33;0.90;;;;;;;15.33;53.57;92695.75;4162889;28;20506;-55
2022/12/11 08:13:25;;;;;;;3.22;1.00;;;;;;;15.39;54.32;92678.19;4159689;28;20158;-54
2022/12/11 08:15:26;;;;;;;1.88;1.00;;;;;;;15.33;54.99;92672.00;4145643;28;20490;-53
2022/12/11 08:17:28;;;;;;;2.83;1.00;;;;;;;15.38;54.53;92702.16;4156728;28;20133;-56
2022/12/11 08:19:37;;;;;;;1.58;0.70;;;;;;;15.35;54.14;92714.78;4169047;28;20060;-56
2022/12/11 08:21:39;;;;;;;2.30;0.80;;;;;;;15.46;53.92;92728.16;4164951;28;20497;-53
2022/12/11 08:23:40;;;;;;;0.88;0.60;;;;;;;15.49;53.57;92706.59;4169973;28;20085;-56
2022/12/11 08:25:42;;;;;;;5.97;1.00;;;;;;;15.51;53.48;92701.88;4172222;28;20531;-55
2022/12/11 08:27:44;;;;;;;2.30;0.90;;;;;;;15.37;53.55;92688.16;4176366;28;20140;-52
2022/12/11 08:29:46;;;;;;;2.33;0.85;;;;;;;15.38;53.38;92724.09;4162384;28;20045;-56
2022/12/11 08:31:48;;;;;;;4.30;1.30;;;;;;;15.33;55.09;92735.31;4162114;28;20045;-53
2022/12/11 08:33:50;;;;;;;3.72;0.90;;;;;;;15.30;55.34;92733.16;4172013;28;20080;-52
2022/12/11 08:35:52;;;;;;;4.82;1.77;;;;;;;15.40;55.37;92715.91;4165435;28;20070;-54
2022/12/11 08:37:54;;;;;;;2.13;1.17;;;;;;;15.46;55.50;92699.94;4149257;28;20053;-55
2022/12/11 08:39:55;;;;;;;1.30;0.90;;;;;;;15.39;55.27;92724.88;4164972;28;20041;-57
2022/12/11 08:41:57;;;;;;;1.20;0.75;;;;;;;15.30;55.08;92700.72;4159237;28;20041;-54
2022/12/11 08:44:00;;;;;;;2.17;1.08;;;;;;;15.31;56.56;92689.91;4150205;28;20449;-57
2022/12/11 08:46:02;;;;;;;3.80;1.07;;;;;;;15.23;57.69;92695.59;4147669;28;20057;-54
2022/12/11 08:48:04;;;;;;;4.80;1.58;;;;;;;15.14;59.25;92703.09;4178415;28;20704;-55
2022/12/11 08:50:06;;;;;;;2.90;1.00;;;;;;;15.11;58.77;92732.53;4178329;28;20052;-56
2022/12/11 08:52:08;;;;;;;3.13;1.15;;;;;;;15.16;58.60;92697.56;4178251;28;20471;-52
2022/12/11 08:54:10;;;;;;;3.42;1.30;;;;;;;15.23;59.20;92723.78;4156286;28;20215;-55
2022/12/11 08:56:14;;;;;;;4.35;1.10;;;;;;;15.14;61.69;92720.72;4178650;28;20102;-56
2022/12/11 08:58:16;;;;;;;6.13;2.03;;;;;;;15.08;62.63;92726.97;4177569;28;20139;-55
2022/12/11 09:00:18;;;;;;;5.25;1.88;;;;;;;15.02;63.64;92720.78;4176452;28;20511;-54
2022/12/11 09:02:20;;;;;;;3.40;1.40;;;;;;;15.03;64.16;92722.34;4177211;28;20489;-57
2022/12/11 09:04:22;;;;;;;6.70;1.67;;;;;;;15.12;64.65;92714.88;4171082;28;20485;-57
2022/12/11 09:06:25;;;;;;;5.45;1.75;;;;;;;15.12;64.70;92699.06;4161810;28;20061;-55
2022/12/11 09:08:27;;;;;;;3.65;1.58;;;;;;;15.21;63.98;92697.66;4161145;28;20140;-53
2022/12/11 09:10:29;;;;;;;3.90;1.60;;;;;;;15.32;63.76;92706.56;4157053;28;20066;-53
2022/12/11 09:12:32;;;;;;;4.43;1.15;;;;;;;15.33;59.91;92701.03;4145742;28;20100;-58
2022/12/11 09:14:34;;;;;;;2.70;1.20;;;;;;;15.30;59.62;92687.53;4144709;28;20524;-55
2022/12/11 09:16:39;;;;;;;1.80;1.27;;;;;;;15.40;58.00;92679.78;4146378;28;20392;-58
2022/12/11 09:18:41;;;;;;;1.60;0.98;;;;;;;15.67;57.45;92687.09;4151692;28;20045;-54
2022/12/11 09:20:43;;;;;;;3.35;1.38;;;;;;;15.75;57.76;92697.28;4162514;28;20144;-53
2022/12/11 09:22:45;;;;;;;3.47;1.50;;;;;;;15.76;57.29;92702.31;4149565;28;20233;-56
2022/12/11 09:24:46;;;;;;;1.98;0.93;;;;;;;15.88;56.85;92696.16;4146531;28;20053;-58
2022/12/11 09:26:48;;;;;;;3.60;1.10;;;;;;;15.84;56.98;92726.72;4145705;28;20828;-57
2022/12/11 09:28:52;;;;;;;1.95;1.20;;;;;;;15.89;55.81;92684.56;4154111;28;20084;-58
2022/12/11 09:30:53;;;;;;;1.67;0.90;;;;;;;15.85;54.95;92688.72;4173371;28;20458;-55
2022/12/11 09:32:55;;;;;;;3.13;1.10;;;;;;;16.05;54.78;92712.00;4162024;28;20141;-53
2022/12/11 09:34:57;;;;;;;2.60;1.10;;;;;;;16.26;54.61;92684.84;4156387;28;20188;-56
2022/12/11 09:36:58;;;;;;;1.95;1.10;;;;;;;16.33;54.30;92685.47;4144760;28;20104;-53
2022/12/11 09:39:03;;;;;;;2.47;1.10;;;;;;;16.25;54.17;92670.03;4168841;28;20536;-56
2022/12/11 09:41:20;;;;;;;1.90;0.98;;;;;;;16.43;53.83;92679.50;4157587;28;20084;-55
2022/12/11 09:43:37;;;;;;;2.60;1.08;;;;;;;16.52;53.81;92677.25;4153968;28;20049;-55
2022/12/11 09:45:39;;;;;;;3.10;1.25;;;;;;;16.71;53.51;92678.56;4177405;28;20086;-53
2022/12/11 09:47:46;;;;;;;3.47;1.50;;;;;;;16.90;53.11;92670.34;4162485;28;20079;-57
2022/12/11 09:49:54;;;;;;;2.97;1.17;;;;;;;16.88;51.38;92646.00;4153657;28;20450;-54